Time;durP1;ratioP1;P1;durP2;ratioP2;P2;SDS_P1;SDS_P2;PMS_P1;PMS_P2;Temp;Humidity;BMP_temperature;BMP_pressure;BME280_temperature;BME280_humidity;BME280_pressure;Samples;Min_cycle;Max_cycle;Signal;HPM_P1;HPM_P2
2022/03/27 00:02:09;;;;;;;27.33;17.30;;;;;;;;;;5075836;28;20429;-65
2022/03/27 00:04:35;;;;;;;25.13;16.07;;;;;;;;;;5075765;28;20860;-65
2022/03/27 00:07:01;;;;;;;27.57;15.10;;;;;;;;;;5075736;28;20406;-65
2022/03/27 00:09:27;;;;;;;28.97;16.50;;;;;;;;;;5075647;28;20422;-65
2022/03/27 00:11:53;;;;;;;26.13;15.17;;;;;;;;;;5075661;28;20905;-65
2022/03/27 00:14:19;;;;;;;28.00;17.60;;;;;;;;;;5075552;28;20415;-64
2022/03/27 00:16:45;;;;;;;31.13;16.40;;;;;;;;;;5075541;28;20471;-65
2022/03/27 00:19:11;;;;;;;32.77;15.90;;;;;;;;;;5075446;28;20469;-65
2022/03/27 00:21:38;;;;;;;33.70;16.40;;;;;;;;;;5075547;28;20497;-65
2022/03/27 00:24:05;;;;;;;31.40;16.27;;;;;;;;;;5075500;28;20413;-62
2022/03/27 00:26:31;;;;;;;28.80;18.27;;;;;;;;;;5075521;28;20428;-66
2022/03/27 00:28:57;;;;;;;29.27;18.20;;;;;;;;;;5075205;28;20774;-66
2022/03/27 00:31:23;;;;;;;45.87;26.83;;;;;;;;;;5075271;28;20913;-70
2022/03/27 00:33:49;;;;;;;30.63;16.03;;;;;;;;;;5075252;28;20494;-66
2022/03/27 00:36:15;;;;;;;29.20;14.73;;;;;;;;;;5075208;28;20886;-65
2022/03/27 00:38:42;;;;;;;28.40;16.23;;;;;;;;;;5074907;28;20440;-66
2022/03/27 00:41:08;;;;;;;31.77;15.77;;;;;;;;;;5075080;28;20414;-65
2022/03/27 00:43:34;;;;;;;24.90;14.90;;;;;;;;;;5075101;28;20889;-65
2022/03/27 00:46:00;;;;;;;19.90;13.77;;;;;;;;;;5073724;28;20452;-65
2022/03/27 00:48:27;;;;;;;24.67;14.47;;;;;;;;;;5074951;28;20440;-65
2022/03/27 00:50:53;;;;;;;31.10;16.03;;;;;;;;;;5074845;28;20486;-65
2022/03/27 00:53:20;;;;;;;32.50;16.70;;;;;;;;;;5074838;28;20603;-65
2022/03/27 00:55:46;;;;;;;31.50;15.10;;;;;;;;;;5074779;28;20908;-65
2022/03/27 00:58:12;;;;;;;28.10;15.10;;;;;;;;;;5074716;28;20499;-69
2022/03/27 01:00:38;;;;;;;30.60;13.40;;;;;;;;;;5074768;28;20505;-68
2022/03/27 01:03:12;;;;;;;29.00;15.80;;;;;;;;;;5074661;28;20494;-69
2022/03/27 01:05:42;;;;;;;27.93;14.93;;;;;;;;;;5074897;28;20464;-70
2022/03/27 01:08:09;;;;;;;25.63;14.67;;;;;;;;;;5074853;28;20402;-68
2022/03/27 01:10:36;;;;;;;30.93;17.50;;;;;;;;;;5074408;28;20428;-70
2022/03/27 01:13:08;;;;;;;26.80;13.90;;;;;;;;;;5074659;28;20447;-69
2022/03/27 01:15:37;;;;;;;23.87;13.67;;;;;;;;;;5074329;28;20948;-68
2022/03/27 01:18:03;;;;;;;31.73;16.00;;;;;;;;;;5074262;28;20802;-69
2022/03/27 01:20:33;;;;;;;28.60;14.90;;;;;;;;;;5074274;28;20444;-70
2022/03/27 01:22:59;;;;;;;30.43;14.90;;;;;;;;;;5074197;28;20413;-68
2022/03/27 01:25:26;;;;;;;25.73;14.60;;;;;;;;;;5072977;28;20421;-70
2022/03/27 01:27:52;;;;;;;28.23;14.53;;;;;;;;;;5074205;28;20901;-67
2022/03/27 01:30:18;;;;;;;21.93;13.27;;;;;;;;;;5074480;28;20409;-72
2022/03/27 01:32:44;;;;;;;37.20;14.57;;;;;;;;;;5074132;28;20421;-72
2022/03/27 01:35:10;;;;;;;36.67;14.40;;;;;;;;;;5074132;28;20425;-65
2022/03/27 01:37:36;;;;;;;21.60;13.43;;;;;;;;;;5074123;28;20536;-65
2022/03/27 01:40:03;;;;;;;28.00;13.50;;;;;;;;;;5073364;28;20516;-67
2022/03/27 01:42:29;;;;;;;30.50;14.17;;;;;;;;;;5073896;28;20967;-66
2022/03/27 01:44:55;;;;;;;25.93;14.20;;;;;;;;;;5073821;28;20410;-69
2022/03/27 01:47:21;;;;;;;33.93;13.90;;;;;;;;;;5073856;28;20468;-66
2022/03/27 01:49:47;;;;;;;32.10;14.97;;;;;;;;;;5073786;28;20406;-67
2022/03/27 01:52:15;;;;;;;24.47;12.77;;;;;;;;;;5073790;28;20879;-63
2022/03/27 01:54:41;;;;;;;28.67;13.37;;;;;;;;;;5073970;28;20468;-63
2022/03/27 01:57:07;;;;;;;39.53;15.17;;;;;;;;;;5073575;28;20414;-64
2022/03/27 01:59:35;;;;;;;20.70;14.10;;;;;;;;;;5073912;28;20548;-64
2022/03/27 02:02:01;;;;;;;25.00;13.90;;;;;;;;;;5073695;28;20402;-66
2022/03/27 02:04:26;;;;;;;32.47;12.73;;;;;;;;;;5073593;28;20484;-66
2022/03/27 02:06:53;;;;;;;25.53;13.47;;;;;;;;;;5073569;28;20402;-64
2022/03/27 02:09:19;;;;;;;22.70;13.83;;;;;;;;;;5072254;28;20414;-67
2022/03/27 02:11:44;;;;;;;24.43;12.43;;;;;;;;;;5073459;28;20414;-64
2022/03/27 02:14:11;;;;;;;25.20;13.60;;;;;;;;;;5073568;28;20984;-64
2022/03/27 02:16:37;;;;;;;24.47;13.53;;;;;;;;;;5073435;28;20410;-65
2022/03/27 02:19:09;;;;;;;27.73;14.27;;;;;;;;;;5073398;28;20469;-65
2022/03/27 02:21:36;;;;;;;30.70;14.87;;;;;;;;;;5072132;28;20422;-70
2022/03/27 02:24:05;;;;;;;24.13;13.00;;;;;;;;;;5073409;28;20406;-68
2022/03/27 02:26:31;;;;;;;25.83;13.10;;;;;;;;;;5073334;28;20406;-67
2022/03/27 02:28:57;;;;;;;30.73;13.40;;;;;;;;;;5073437;28;20416;-68
2022/03/27 02:31:23;;;;;;;24.47;13.10;;;;;;;;;;5073368;28;20504;-66
2022/03/27 02:33:49;;;;;;;24.57;13.77;;;;;;;;;;5073254;28;20478;-69
2022/03/27 02:36:16;;;;;;;29.00;13.80;;;;;;;;;;5073311;28;20406;-68
2022/03/27 02:38:43;;;;;;;28.67;14.47;;;;;;;;;;5073039;28;20496;-70
2022/03/27 02:41:09;;;;;;;25.53;13.80;;;;;;;;;;5073216;28;20949;-65
2022/03/27 02:43:38;;;;;;;22.40;12.90;;;;;;;;;;5073382;28;20498;-66
2022/03/27 02:46:05;;;;;;;34.50;13.60;;;;;;;;;;5073228;28;20398;-65
2022/03/27 02:48:31;;;;;;;31.43;13.67;;;;;;;;;;5073217;28;20425;-66
2022/03/27 02:50:57;;;;;;;27.07;13.23;;;;;;;;;;5073153;28;20421;-64
2022/03/27 02:53:23;;;;;;;28.63;14.23;;;;;;;;;;5076293;28;20852;-64
2022/03/27 02:55:49;;;;;;;32.10;13.83;;;;;;;;;;5077126;28;20547;-64
2022/03/27 02:58:15;;;;;;;32.03;14.43;;;;;;;;;;5077219;28;20428;-70
2022/03/27 03:00:42;;;;;;;34.10;13.10;;;;;;;;;;5077244;28;20776;-70
2022/03/27 03:03:08;;;;;;;25.77;13.60;;;;;;;;;;5077142;28;20383;-70
2022/03/27 03:05:34;;;;;;;33.10;13.10;;;;;;;;;;5075729;28;20430;-68
2022/03/27 03:08:02;;;;;;;23.70;13.30;;;;;;;;;;5077045;28;20402;-66
2022/03/27 03:10:29;;;;;;;27.17;12.90;;;;;;;;;;5076843;28;20936;-66
2022/03/27 03:12:56;;;;;;;30.20;13.87;;;;;;;;;;5077128;28;20414;-66
2022/03/27 03:15:23;;;;;;;31.20;14.47;;;;;;;;;;5076759;28;20425;-66
2022/03/27 03:17:49;;;;;;;26.27;13.50;;;;;;;;;;5076859;28;20469;-66
2022/03/27 03:20:16;;;;;;;27.10;12.70;;;;;;;;;;5076536;28;20409;-69
2022/03/27 03:22:42;;;;;;;25.90;13.50;;;;;;;;;;5076840;28;20426;-68
2022/03/27 03:25:09;;;;;;;23.93;13.93;;;;;;;;;;5076448;28;20895;-68
2022/03/27 03:27:35;;;;;;;29.90;13.17;;;;;;;;;;5075189;28;20437;-66
2022/03/27 03:30:01;;;;;;;31.73;13.80;;;;;;;;;;5076429;28;20497;-67
2022/03/27 03:32:28;;;;;;;34.60;13.00;;;;;;;;;;5076469;28;20410;-68
2022/03/27 03:34:54;;;;;;;27.10;13.53;;;;;;;;;;5076488;28;20416;-67
2022/03/27 03:37:20;;;;;;;28.77;13.30;;;;;;;;;;5076461;28;20441;-70
2022/03/27 03:39:46;;;;;;;21.60;12.10;;;;;;;;;;5076157;28;20469;-66
2022/03/27 03:42:13;;;;;;;25.63;12.63;;;;;;;;;;5076148;28;20405;-65
2022/03/27 03:44:39;;;;;;;29.70;13.93;;;;;;;;;;5076138;28;20754;-65
2022/03/27 03:47:05;;;;;;;26.03;13.27;;;;;;;;;;5076173;28;20764;-67
2022/03/27 03:49:31;;;;;;;34.10;13.53;;;;;;;;;;5076362;28;20760;-66
2022/03/27 03:51:57;;;;;;;25.17;12.90;;;;;;;;;;5075972;28;20407;-69
2022/03/27 03:54:23;;;;;;;25.93;13.53;;;;;;;;;;5075994;28;20821;-66
2022/03/27 03:56:49;;;;;;;45.30;15.07;;;;;;;;;;5075968;28;20444;-65
2022/03/27 03:59:15;;;;;;;28.93;13.10;;;;;;;;;;5076055;28;20469;-65
2022/03/27 04:01:41;;;;;;;26.23;13.20;;;;;;;;;;5075766;28;20388;-65
2022/03/27 04:04:10;;;;;;;23.77;13.80;;;;;;;;;;5075239;28;20381;-65
2022/03/27 04:06:36;;;;;;;40.73;13.87;;;;;;;;;;5075796;28;20394;-68
2022/03/27 04:09:02;;;;;;;24.63;13.67;;;;;;;;;;5075738;28;20381;-67
2022/03/27 04:11:28;;;;;;;23.20;13.60;;;;;;;;;;5075632;28;20405;-66
2022/03/27 04:13:54;;;;;;;26.53;13.07;;;;;;;;;;5075615;28;20405;-66
2022/03/27 04:16:20;;;;;;;30.90;12.93;;;;;;;;;;5075623;28;20398;-66
2022/03/27 04:18:47;;;;;;;27.20;13.27;;;;;;;;;;5075462;28;20488;-68
2022/03/27 04:21:13;;;;;;;26.23;13.20;;;;;;;;;;5075572;28;20844;-66
2022/03/27 04:23:38;;;;;;;28.03;13.83;;;;;;;;;;5075528;28;20441;-66
2022/03/27 04:26:05;;;;;;;28.73;13.40;;;;;;;;;;5074141;28;20935;-65
2022/03/27 04:28:31;;;;;;;36.93;14.83;;;;;;;;;;5075400;28;20420;-64
2022/03/27 04:30:57;;;;;;;38.10;14.07;;;;;;;;;;5075353;28;20373;-68
2022/03/27 04:33:23;;;;;;;28.67;13.30;;;;;;;;;;5075296;28;20756;-65
2022/03/27 04:35:49;;;;;;;32.33;14.00;;;;;;;;;;5075251;28;20421;-66
2022/03/27 04:38:16;;;;;;;27.27;13.97;;;;;;;;;;5074997;28;20546;-65
2022/03/27 04:40:42;;;;;;;37.23;14.20;;;;;;;;;;5073740;28;20469;-65
2022/03/27 04:43:08;;;;;;;29.50;13.87;;;;;;;;;;5075135;28;20418;-67
2022/03/27 04:45:34;;;;;;;37.73;15.00;;;;;;;;;;5075026;28;20489;-70
2022/03/27 04:48:00;;;;;;;24.27;13.27;;;;;;;;;;5075055;28;20416;-69
2022/03/27 04:50:26;;;;;;;22.50;13.20;;;;;;;;;;5075015;28;20429;-67
2022/03/27 04:52:52;;;;;;;21.90;13.30;;;;;;;;;;5074852;28;20418;-68
2022/03/27 04:55:18;;;;;;;27.80;13.73;;;;;;;;;;5073490;28;20392;-65
2022/03/27 04:57:44;;;;;;;22.80;13.37;;;;;;;;;;5074739;28;20456;-65
2022/03/27 05:00:14;;;;;;;27.33;13.50;;;;;;;;;;5074766;28;20883;-68
2022/03/27 05:02:41;;;;;;;21.03;13.10;;;;;;;;;;5074724;28;20399;-65
2022/03/27 05:05:08;;;;;;;31.53;12.50;;;;;;;;;;5074618;28;20417;-65
2022/03/27 05:07:37;;;;;;;26.47;12.57;;;;;;;;;;5074667;28;20373;-65
2022/03/27 05:10:04;;;;;;;20.50;13.17;;;;;;;;;;5074565;28;20430;-65
2022/03/27 05:12:30;;;;;;;22.97;12.33;;;;;;;;;;5074397;28;20418;-65
2022/03/27 05:14:56;;;;;;;30.57;12.40;;;;;;;;;;5073889;28;20416;-65
2022/03/27 05:17:22;;;;;;;24.05;13.85;;;;;;;;;;5074322;28;20502;-67
2022/03/27 05:19:48;;;;;;;27.10;13.40;;;;;;;;;;5074385;28;20639;-64
2022/03/27 05:22:15;;;;;;;23.00;13.40;;;;;;;;;;5074336;28;20406;-65
2022/03/27 05:24:41;;;;;;;23.48;13.80;;;;;;;;;;5074257;28;20871;-65
2022/03/27 05:27:07;;;;;;;23.88;12.88;;;;;;;;;;5074201;28;20180;-65
2022/03/27 05:29:33;;;;;;;25.67;13.03;;;;;;;;;;5074172;28;20225;-67
2022/03/27 05:31:59;;;;;;;40.47;13.93;;;;;;;;;;5074395;28;20471;-65
2022/03/27 05:34:25;;;;;;;20.90;13.30;;;;;;;;;;5074164;28;20403;-66
2022/03/27 05:36:51;;;;;;;28.50;14.30;;;;;;;;;;5074025;28;20171;-66
2022/03/27 05:39:17;;;;;;;23.03;13.27;;;;;;;;;;5073744;28;20482;-64
2022/03/27 05:41:44;;;;;;;24.23;13.02;;;;;;;;;;5073862;28;20559;-65
2022/03/27 05:44:10;;;;;;;28.03;13.63;;;;;;;;;;5073967;28;20661;-66
2022/03/27 05:46:37;;;;;;;30.08;12.93;;;;;;;;;;5073947;28;20434;-67
2022/03/27 05:49:03;;;;;;;26.38;13.05;;;;;;;;;;5073923;28;20623;-68
2022/03/27 05:51:29;;;;;;;27.65;13.70;;;;;;;;;;5073891;28;20175;-71
2022/03/27 05:53:55;;;;;;;27.60;14.40;;;;;;;;;;5073798;28;20171;-67
2022/03/27 05:56:21;;;;;;;25.08;15.30;;;;;;;;;;5073691;28;20501;-69
2022/03/27 05:58:47;;;;;;;30.20;14.30;;;;;;;;;;5073626;28;20307;-69
2022/03/27 06:01:14;;;;;;;29.63;13.10;;;;;;;;;;5073921;28;20388;-68
2022/03/27 06:03:40;;;;;;;22.20;13.40;;;;;;;;;;5073733;28;20512;-69
2022/03/27 06:06:06;;;;;;;31.15;13.60;;;;;;;;;;5073601;28;20369;-69
2022/03/27 06:08:33;;;;;;;23.20;12.97;;;;;;;;;;5073600;28;20673;-67
2022/03/27 06:10:59;;;;;;;32.45;14.30;;;;;;;;;;5073787;28;20910;-71
2022/03/27 06:13:25;;;;;;;30.00;17.30;;;;;;;;;;5073534;28;20229;-67
2022/03/27 06:15:51;;;;;;;27.30;15.50;;;;;;;;;;5073450;28;20424;-68
2022/03/27 06:18:17;;;;;;;33.65;16.38;;;;;;;;;;5073441;28;20583;-67
2022/03/27 06:20:43;;;;;;;37.15;14.93;;;;;;;;;;5073822;28;20645;-66
2022/03/27 06:23:10;;;;;;;25.40;13.65;;;;;;;;;;5073446;28;20171;-69
2022/03/27 06:25:38;;;;;;;26.25;13.77;;;;;;;;;;5073087;28;20258;-69
2022/03/27 06:28:04;;;;;;;40.33;15.02;;;;;;;;;;5072142;28;20680;-69
2022/03/27 06:30:30;;;;;;;26.98;14.68;;;;;;;;;;5073359;28;20627;-68
2022/03/27 06:32:57;;;;;;;26.23;15.37;;;;;;;;;;5073201;28;20160;-69
2022/03/27 06:35:24;;;;;;;26.65;14.38;;;;;;;;;;5073334;28;20428;-69
2022/03/27 06:37:50;;;;;;;33.40;14.87;;;;;;;;;;5073141;28;20211;-66
2022/03/27 06:40:17;;;;;;;26.60;14.30;;;;;;;;;;5073082;28;20466;-68
2022/03/27 06:42:44;;;;;;;23.83;14.33;;;;;;;;;;5073257;28;20380;-66
2022/03/27 06:45:10;;;;;;;36.20;15.93;;;;;;;;;;5073210;28;20381;-65
2022/03/27 06:47:36;;;;;;;29.97;14.77;;;;;;;;;;5073130;28;20397;-68
2022/03/27 06:50:04;;;;;;;36.00;15.00;;;;;;;;;;5073147;28;20741;-66
2022/03/27 06:52:30;;;;;;;31.00;15.20;;;;;;;;;;5073381;28;20400;-68
2022/03/27 06:54:56;;;;;;;35.43;19.43;;;;;;;;;;5072931;28;20376;-70
2022/03/27 06:57:22;;;;;;;62.40;38.95;;;;;;;;;;5072962;28;20751;-69
2022/03/27 07:05:21;;;;;;;33.93;16.47;;;;;;;;;;5073325;28;20948;-67
2022/03/27 07:07:47;;;;;;;36.40;17.03;;;;;;;;;;5073003;28;20491;-66
2022/03/27 07:10:13;;;;;;;34.23;17.23;;;;;;;;;;5072923;28;20915;-67
2022/03/27 07:12:39;;;;;;;33.47;17.67;;;;;;;;;;5073248;28;20372;-66
2022/03/27 07:15:06;;;;;;;33.83;17.07;;;;;;;;;;5073209;28;20401;-66
2022/03/27 07:17:32;;;;;;;33.93;15.93;;;;;;;;;;5072727;28;20806;-66
2022/03/27 07:19:58;;;;;;;32.30;15.40;;;;;;;;;;5072863;28;20402;-66
2022/03/27 07:22:25;;;;;;;33.60;16.97;;;;;;;;;;5072760;28;20433;-66
2022/03/27 07:24:51;;;;;;;27.43;15.43;;;;;;;;;;5073079;28;20387;-66
2022/03/27 07:27:17;;;;;;;33.30;16.77;;;;;;;;;;5072739;28;20388;-66
2022/03/27 07:29:43;;;;;;;27.50;18.03;;;;;;;;;;5073171;28;20757;-66
2022/03/27 07:32:11;;;;;;;38.70;27.00;;;;;;;;;;5072968;28;20495;-67
2022/03/27 07:34:37;;;;;;;31.17;17.47;;;;;;;;;;5072865;28;20425;-66
2022/03/27 07:37:03;;;;;;;37.53;16.90;;;;;;;;;;5073045;28;20425;-66
2022/03/27 07:39:29;;;;;;;30.37;16.97;;;;;;;;;;5075407;28;20466;-65
2022/03/27 07:41:55;;;;;;;37.33;15.90;;;;;;;;;;5076230;28;20388;-65
2022/03/27 07:44:22;;;;;;;33.17;15.83;;;;;;;;;;5076223;28;20410;-65
2022/03/27 07:46:52;;;;;;;33.40;17.13;;;;;;;;;;5076190;28;20413;-66
2022/03/27 07:49:19;;;;;;;39.77;16.53;;;;;;;;;;5076160;28;20867;-66
2022/03/27 07:51:45;;;;;;;31.60;15.73;;;;;;;;;;5076091;28;20535;-68
2022/03/27 07:54:11;;;;;;;24.03;14.90;;;;;;;;;;5075972;28;20402;-66
2022/03/27 07:56:37;;;;;;;36.37;16.70;;;;;;;;;;5075876;28;20413;-71
2022/03/27 07:59:03;;;;;;;29.43;15.53;;;;;;;;;;5075841;28;21016;-64
2022/03/27 08:01:29;;;;;;;28.20;15.77;;;;;;;;;;5075877;28;20436;-60
2022/03/27 08:03:56;;;;;;;28.70;16.87;;;;;;;;;;5076056;28;20414;-65
2022/03/27 08:06:23;;;;;;;40.13;17.10;;;;;;;;;;5076069;28;20476;-67
2022/03/27 08:08:49;;;;;;;33.93;16.93;;;;;;;;;;5075740;28;20774;-67
2022/03/27 08:11:15;;;;;;;38.50;16.50;;;;;;;;;;5075626;28;20406;-66
2022/03/27 08:13:42;;;;;;;33.03;16.30;;;;;;;;;;5074341;28;20433;-66
2022/03/27 08:16:08;;;;;;;35.23;17.03;;;;;;;;;;5075588;28;20401;-66
2022/03/27 08:18:34;;;;;;;30.67;17.53;;;;;;;;;;5075396;28;20458;-67
2022/03/27 08:21:00;;;;;;;32.37;18.67;;;;;;;;;;5075422;28;20765;-65
2022/03/27 08:23:26;;;;;;;34.37;17.10;;;;;;;;;;5075476;28;20406;-66
2022/03/27 08:28:36;;;;;;;32.03;17.07;;;;;;;;;;5075364;28;20488;-66
2022/03/27 08:31:03;;;;;;;59.87;17.17;;;;;;;;;;5075259;28;20426;-66
2022/03/27 08:33:29;;;;;;;51.73;32.57;;;;;;;;;;5075299;28;20405;-66
2022/03/27 08:35:58;;;;;;;36.83;19.30;;;;;;;;;;5075123;28;20406;-66
2022/03/27 08:38:24;;;;;;;31.67;18.30;;;;;;;;;;5075038;28;20467;-66
2022/03/27 08:40:50;;;;;;;30.83;16.50;;;;;;;;;;5074876;28;20993;-66
2022/03/27 08:43:17;;;;;;;46.27;18.80;;;;;;;;;;5073885;28;20536;-66
2022/03/27 08:45:44;;;;;;;33.77;18.53;;;;;;;;;;5074982;28;20406;-66
2022/03/27 08:48:11;;;;;;;42.73;18.80;;;;;;;;;;5074944;28;20418;-66
2022/03/27 08:50:37;;;;;;;34.27;18.17;;;;;;;;;;5074908;28;20441;-66
2022/03/27 08:53:04;;;;;;;36.43;17.33;;;;;;;;;;5074952;28;20406;-66
2022/03/27 08:55:49;;;;;;;97.60;50.83;;;;;;;;;;5074850;28;20489;-68
2022/03/27 08:58:15;;;;;;;36.90;23.00;;;;;;;;;;5074778;28;20461;-66
2022/03/27 09:00:41;;;;;;;39.00;18.60;;;;;;;;;;5074651;28;20403;-66
2022/03/27 09:03:07;;;;;;;32.53;16.90;;;;;;;;;;5074583;28;20481;-67
2022/03/27 09:05:34;;;;;;;36.57;19.27;;;;;;;;;;5075009;28;20775;-67
2022/03/27 09:08:03;;;;;;;28.43;18.50;;;;;;;;;;5074855;28;20437;-66
2022/03/27 09:10:29;;;;;;;33.97;17.50;;;;;;;;;;5074537;28;20397;-65
2022/03/27 09:12:55;;;;;;;28.63;17.67;;;;;;;;;;5074492;28;20402;-67
2022/03/27 09:15:23;;;;;;;55.57;28.67;;;;;;;;;;5074280;28;20405;-66
2022/03/27 09:17:55;;;;;;;34.00;19.20;;;;;;;;;;5074338;28;20520;-66
2022/03/27 09:20:41;;;;;;;36.37;18.70;;;;;;;;;;5074282;28;20433;-66
2022/03/27 09:23:26;;;;;;;32.67;17.47;;;;;;;;;;5074489;28;20394;-66
2022/03/27 09:25:52;;;;;;;43.67;19.10;;;;;;;;;;5074185;28;20485;-66
2022/03/27 09:28:28;;;;;;;40.90;17.40;;;;;;;;;;5074294;28;20536;-67
2022/03/27 09:30:56;;;;;;;36.90;18.10;;;;;;;;;;5074173;28;20795;-66
2022/03/27 09:33:32;;;;;;;30.17;18.30;;;;;;;;;;5074119;28;20402;-68
2022/03/27 09:36:05;;;;;;;35.73;19.00;;;;;;;;;;5072720;28;20410;-67
2022/03/27 09:38:31;;;;;;;29.33;17.17;;;;;;;;;;5072491;28;20470;-66
2022/03/27 09:40:57;;;;;;;33.33;16.80;;;;;;;;;;5073940;28;20426;-66
2022/03/27 09:43:23;;;;;;;32.57;16.50;;;;;;;;;;5073917;28;20909;-66
2022/03/27 09:45:56;;;;;;;30.37;16.70;;;;;;;;;;5073908;28;20431;-68
2022/03/27 09:48:22;;;;;;;28.07;16.23;;;;;;;;;;5073846;28;20411;-66
2022/03/27 09:50:48;;;;;;;36.37;18.07;;;;;;;;;;5073835;28;20764;-68
2022/03/27 09:53:21;;;;;;;37.83;17.27;;;;;;;;;;5072513;28;20406;-69
2022/03/27 09:56:08;;;;;;;34.03;17.60;;;;;;;;;;5073753;28;20763;-68
2022/03/27 09:58:38;;;;;;;33.60;16.53;;;;;;;;;;5063308;28;21044;-68
2022/03/27 10:01:17;;;;;;;30.40;16.90;;;;;;;;;;5073236;28;20414;-67
2022/03/27 10:03:59;;;;;;;32.73;18.87;;;;;;;;;;5073616;28;20421;-67
2022/03/27 10:06:29;;;;;;;36.93;16.83;;;;;;;;;;5073726;28;20406;-67
2022/03/27 10:08:54;;;;;;;30.87;17.07;;;;;;;;;;5072287;28;20923;-67
2022/03/27 10:11:24;;;;;;;29.50;16.93;;;;;;;;;;5073463;28;20470;-67
2022/03/27 10:13:54;;;;;;;34.30;17.53;;;;;;;;;;5072218;28;20426;-66
2022/03/27 10:16:30;;;;;;;44.27;18.47;;;;;;;;;;5073468;28;20406;-72
2022/03/27 10:19:02;;;;;;;34.57;16.57;;;;;;;;;;5073437;28;20494;-74
2022/03/27 10:21:29;;;;;;;30.93;17.50;;;;;;;;;;5073317;28;20444;-73
2022/03/27 10:24:01;;;;;;;39.03;17.30;;;;;;;;;;5073413;28;20416;-70
2022/03/27 10:26:28;;;;;;;27.50;16.80;;;;;;;;;;5073218;28;20417;-67
2022/03/27 10:28:54;;;;;;;34.50;18.37;;;;;;;;;;5073721;28;20523;-66
2022/03/27 10:31:21;;;;;;;30.33;18.70;;;;;;;;;;5073498;28;20421;-72
2022/03/27 10:33:49;;;;;;;35.07;17.07;;;;;;;;;;5073374;28;20417;-69
2022/03/27 10:36:24;;;;;;;28.67;17.53;;;;;;;;;;5072009;28;20428;-68
2022/03/27 10:39:08;;;;;;;40.83;18.03;;;;;;;;;;5072874;28;20572;-69
2022/03/27 10:41:45;;;;;;;32.83;18.00;;;;;;;;;;5073102;28;20441;-68
2022/03/27 10:44:28;;;;;;;33.10;18.13;;;;;;;;;;5073240;28;20409;-68
2022/03/27 10:47:12;;;;;;;28.50;17.87;;;;;;;;;;5073092;28;20410;-67
2022/03/27 10:49:39;;;;;;;33.73;19.27;;;;;;;;;;5073123;28;20408;-68
2022/03/27 10:52:05;;;;;;;37.10;19.03;;;;;;;;;;5073150;28;20400;-68
2022/03/27 10:54:32;;;;;;;39.93;19.07;;;;;;;;;;5073117;28;20434;-69
2022/03/27 10:56:58;;;;;;;35.30;19.40;;;;;;;;;;5073035;28;20415;-69
2022/03/27 10:59:25;;;;;;;28.20;19.10;;;;;;;;;;5072903;28;20468;-70
2022/03/27 11:01:52;;;;;;;30.47;18.40;;;;;;;;;;5073060;28;20440;-69
2022/03/27 11:04:20;;;;;;;37.13;18.03;;;;;;;;;;5073047;28;20408;-71
2022/03/27 11:06:47;;;;;;;38.40;19.20;;;;;;;;;;5071735;28;20425;-69
2022/03/27 11:09:32;;;;;;;28.47;19.10;;;;;;;;;;5072999;28;20417;-68
2022/03/27 11:11:58;;;;;;;33.13;19.07;;;;;;;;;;5071864;28;20770;-68
2022/03/27 11:14:44;;;;;;;31.27;18.10;;;;;;;;;;5074636;28;20426;-69
2022/03/27 11:17:11;;;;;;;30.30;18.73;;;;;;;;;;5076581;28;20424;-70
2022/03/27 11:19:41;;;;;;;27.27;18.00;;;;;;;;;;5076622;28;20803;-70
2022/03/27 11:22:07;;;;;;;25.83;17.90;;;;;;;;;;5076910;28;20405;-71
2022/03/27 11:24:33;;;;;;;28.20;18.83;;;;;;;;;;5075246;28;20430;-71
2022/03/27 11:26:59;;;;;;;28.60;17.07;;;;;;;;;;5075233;28;20518;-69
2022/03/27 11:29:25;;;;;;;35.97;18.10;;;;;;;;;;5076432;28;20421;-69
2022/03/27 11:32:10;;;;;;;26.60;17.43;;;;;;;;;;5076726;28;20422;-69
2022/03/27 11:34:37;;;;;;;26.37;18.20;;;;;;;;;;5076296;28;20462;-69
2022/03/27 11:37:25;;;;;;;27.30;18.57;;;;;;;;;;5076354;28;20396;-68
2022/03/27 11:39:51;;;;;;;28.57;19.67;;;;;;;;;;5076066;28;21005;-69
2022/03/27 11:42:35;;;;;;;28.50;18.13;;;;;;;;;;5076196;28;20416;-68
2022/03/27 11:45:10;;;;;;;29.20;19.27;;;;;;;;;;5076103;28;20900;-67
2022/03/27 11:47:43;;;;;;;30.20;18.50;;;;;;;;;;5076085;28;20394;-70
2022/03/27 11:50:10;;;;;;;24.90;18.10;;;;;;;;;;5076135;28;20408;-68
2022/03/27 11:52:36;;;;;;;29.57;17.63;;;;;;;;;;5076059;28;20407;-69
2022/03/27 11:55:03;;;;;;;29.03;17.83;;;;;;;;;;5076186;28;20395;-69
2022/03/27 11:57:40;;;;;;;32.90;17.87;;;;;;;;;;5076085;28;20411;-69
2022/03/27 12:00:06;;;;;;;30.73;18.10;;;;;;;;;;5074652;28;20437;-69
2022/03/27 12:02:40;;;;;;;22.93;15.30;;;;;;;;;;5074576;28;20442;-71
2022/03/27 12:05:06;;;;;;;23.53;16.10;;;;;;;;;;5076008;28;20406;-71
2022/03/27 12:07:51;;;;;;;25.43;16.50;;;;;;;;;;5075664;28;20535;-70
2022/03/27 12:10:17;;;;;;;22.23;15.43;;;;;;;;;;5075757;28;20901;-71
2022/03/27 12:12:57;;;;;;;21.43;15.60;;;;;;;;;;5075707;28;20405;-72
2022/03/27 12:15:23;;;;;;;28.30;15.30;;;;;;;;;;5075637;28;20496;-71
2022/03/27 12:17:49;;;;;;;26.20;16.83;;;;;;;;;;5075566;28;20440;-74
2022/03/27 12:20:15;;;;;;;21.27;15.50;;;;;;;;;;5075506;28;20475;-75
2022/03/27 12:22:43;;;;;;;20.13;15.30;;;;;;;;;;5075592;28;20413;-75
2022/03/27 12:25:18;;;;;;;20.83;15.40;;;;;;;;;;5075209;28;20504;-72
2022/03/27 12:30:36;;;;;;;25.13;14.07;;;;;;;;;;5075647;28;20465;-72
2022/03/27 12:33:02;;;;;;;22.23;15.13;;;;;;;;;;5075314;28;20447;-73
2022/03/27 12:35:30;;;;;;;30.73;15.27;;;;;;;;;;5075310;28;20402;-72
2022/03/27 12:37:56;;;;;;;25.27;14.60;;;;;;;;;;5073902;28;20551;-73
2022/03/27 12:40:22;;;;;;;21.63;14.70;;;;;;;;;;5075012;28;20527;-69
2022/03/27 12:42:49;;;;;;;22.30;14.13;;;;;;;;;;5075059;28;20428;-71
2022/03/27 12:45:18;;;;;;;25.67;14.50;;;;;;;;;;5075090;28;20905;-72
2022/03/27 12:47:46;;;;;;;25.60;15.33;;;;;;;;;;5073696;28;20951;-70
2022/03/27 12:50:34;;;;;;;23.13;13.97;;;;;;;;;;5074110;28;20406;-69
2022/03/27 12:53:02;;;;;;;21.00;13.93;;;;;;;;;;5075199;28;20410;-69
2022/03/27 12:55:40;;;;;;;28.80;15.67;;;;;;;;;;5074891;28;20406;-69
2022/03/27 12:58:06;;;;;;;24.67;14.57;;;;;;;;;;5074769;28;20465;-69
2022/03/27 13:00:33;;;;;;;19.60;13.53;;;;;;;;;;5074829;28;20458;-69
2022/03/27 13:03:12;;;;;;;19.47;13.90;;;;;;;;;;5074763;28;20392;-69
2022/03/27 13:05:38;;;;;;;26.43;14.97;;;;;;;;;;5074979;28;20731;-69
2022/03/27 13:08:06;;;;;;;17.53;13.60;;;;;;;;;;5074589;28;20447;-69
2022/03/27 13:10:33;;;;;;;24.97;13.90;;;;;;;;;;5074576;28;20814;-70
2022/03/27 13:13:01;;;;;;;20.43;14.97;;;;;;;;;;5074633;28;20394;-71
2022/03/27 13:15:37;;;;;;;23.00;15.00;;;;;;;;;;5074528;28;20401;-69
2022/03/27 13:18:06;;;;;;;23.87;14.80;;;;;;;;;;5074317;28;20495;-69
2022/03/27 13:20:33;;;;;;;25.60;17.53;;;;;;;;;;5074303;28;20488;-69
2022/03/27 13:22:59;;;;;;;21.10;15.40;;;;;;;;;;5074293;28;20883;-69
2022/03/27 13:25:25;;;;;;;19.00;14.73;;;;;;;;;;5074270;28;20507;-71
2022/03/27 13:27:51;;;;;;;27.63;16.53;;;;;;;;;;5074238;28;20780;-70
2022/03/27 13:30:17;;;;;;;22.90;14.00;;;;;;;;;;5074154;28;20456;-70
2022/03/27 13:32:43;;;;;;;22.83;13.83;;;;;;;;;;5074317;28;20413;-69
2022/03/27 13:35:09;;;;;;;27.53;14.50;;;;;;;;;;5073976;28;20772;-71
2022/03/27 13:37:35;;;;;;;27.30;15.40;;;;;;;;;;5074043;28;20912;-71
2022/03/27 13:40:01;;;;;;;23.50;15.33;;;;;;;;;;5073936;28;20489;-72
2022/03/27 13:45:13;;;;;;;24.00;15.10;;;;;;;;;;5074267;28;20402;-74
2022/03/27 13:47:39;;;;;;;22.33;14.83;;;;;;;;;;5073804;28;20402;-72
2022/03/27 13:50:05;;;;;;;18.27;14.17;;;;;;;;;;5073767;28;20914;-72
2022/03/27 13:52:31;;;;;;;28.00;13.53;;;;;;;;;;5072619;28;21029;-72
2022/03/27 13:54:58;;;;;;;17.87;13.57;;;;;;;;;;5073758;28;20503;-70
2022/03/27 13:57:25;;;;;;;25.13;13.90;;;;;;;;;;5073752;28;20423;-71
2022/03/27 13:59:51;;;;;;;29.73;14.17;;;;;;;;;;5073592;28;20474;-69
2022/03/27 14:02:17;;;;;;;26.47;13.60;;;;;;;;;;5073788;28;20482;-72
2022/03/27 14:04:43;;;;;;;29.43;13.13;;;;;;;;;;5073575;28;20913;-70
2022/03/27 14:07:09;;;;;;;19.63;13.03;;;;;;;;;;5073772;28;20419;-69
2022/03/27 14:09:35;;;;;;;23.20;13.70;;;;;;;;;;5073623;28;20875;-70
2022/03/27 14:12:01;;;;;;;17.50;11.93;;;;;;;;;;5073510;28;20415;-71
2022/03/27 14:14:27;;;;;;;22.73;14.03;;;;;;;;;;5072347;28;20433;-72
2022/03/27 14:16:53;;;;;;;19.93;13.30;;;;;;;;;;5073532;28;20425;-70
2022/03/27 14:19:19;;;;;;;30.27;14.40;;;;;;;;;;5073364;28;20566;-71
2022/03/27 14:21:46;;;;;;;26.43;13.33;;;;;;;;;;5073443;28;20998;-71
2022/03/27 14:24:12;;;;;;;21.60;12.40;;;;;;;;;;5073474;28;20400;-72
2022/03/27 14:26:38;;;;;;;23.63;13.53;;;;;;;;;;5073432;28;20413;-70
2022/03/27 14:29:04;;;;;;;20.57;12.20;;;;;;;;;;5073287;28;20401;-71
2022/03/27 14:31:31;;;;;;;15.30;12.70;;;;;;;;;;5073312;28;20411;-70
2022/03/27 14:33:57;;;;;;;17.40;12.30;;;;;;;;;;5072116;28;20420;-71